createdAt,value
2023-02-11T00:01:26.964Z,34.73
2023-02-11T00:03:55.073Z,35.17
2023-02-11T00:06:23.961Z,34.67
2023-02-11T00:08:53.381Z,40.20
2023-02-11T00:11:23.171Z,35.20
2023-02-11T00:13:50.922Z,35.10
2023-02-11T00:16:20.628Z,33.53
2023-02-11T00:18:48.734Z,34.30
2023-02-11T00:21:18.460Z,38.00
2023-02-11T00:23:47.176Z,35.00
2023-02-11T00:26:17.614Z,35.07
2023-02-11T00:28:47.230Z,34.90
2023-02-11T00:31:16.268Z,36.97
2023-02-11T00:33:44.675Z,36.13
2023-02-11T00:36:15.641Z,31.03
2023-02-11T00:38:44.101Z,34.03
2023-02-11T00:41:11.976Z,31.50
2023-02-11T00:43:41.633Z,32.23
2023-02-11T00:46:09.900Z,34.70
2023-02-11T00:48:37.748Z,30.90
2023-02-11T00:51:05.854Z,34.67
2023-02-11T00:53:33.741Z,34.63
2023-02-11T00:56:02.118Z,34.87
2023-02-11T00:58:30.088Z,36.47
2023-02-11T01:00:59.311Z,33.63
2023-02-11T01:03:27.295Z,32.13
2023-02-11T01:05:56.039Z,31.40
2023-02-11T01:08:24.099Z,35.10
2023-02-11T01:10:56.619Z,37.70
2023-02-11T01:13:24.830Z,32.27
2023-02-11T01:15:55.204Z,34.27
2023-02-11T01:18:24.920Z,31.90
2023-02-11T01:20:53.480Z,31.27
2023-02-11T01:23:21.345Z,32.37
2023-02-11T01:25:49.463Z,30.20
2023-02-11T01:28:18.901Z,29.77
2023-02-11T01:30:47.004Z,32.43
2023-02-11T01:33:14.935Z,31.33
2023-02-11T01:35:44.964Z,33.77
2023-02-11T01:38:17.007Z,34.87
2023-02-11T01:40:48.675Z,29.43
2023-02-11T01:43:16.665Z,32.27
2023-02-11T01:46:05.440Z,36.13
2023-02-11T01:48:37.230Z,28.57
2023-02-11T01:51:10.169Z,29.93
2023-02-11T01:53:57.115Z,34.23
2023-02-11T01:56:43.023Z,32.80
2023-02-11T01:59:16.423Z,32.93
2023-02-11T02:01:47.879Z,31.93
2023-02-11T02:04:19.907Z,29.30
2023-02-11T02:06:53.359Z,32.03
2023-02-11T02:09:24.793Z,32.07
2023-02-11T02:11:52.775Z,29.17
2023-02-11T02:14:21.490Z,28.93
2023-02-11T02:16:49.638Z,28.50
2023-02-11T02:19:49.863Z,29.17
2023-02-11T02:22:48.122Z,33.00
2023-02-11T02:25:29.255Z,27.20
2023-02-11T02:28:09.493Z,30.70
2023-02-11T02:31:10.477Z,33.23
2023-02-11T02:33:46.664Z,31.73
2023-02-11T02:36:23.060Z,30.03
2023-02-11T02:38:56.657Z,34.07
2023-02-11T02:41:29.023Z,30.33
2023-02-11T02:43:57.209Z,30.83
2023-02-11T02:46:26.781Z,35.10
2023-02-11T02:48:57.368Z,30.50
2023-02-11T02:51:40.691Z,32.67
2023-02-11T02:54:31.272Z,34.40
2023-02-11T02:57:07.046Z,33.23
2023-02-11T02:59:45.305Z,35.10
2023-02-11T03:02:19.063Z,31.67
2023-02-11T03:04:56.729Z,33.57
2023-02-11T03:07:36.484Z,32.97
2023-02-11T03:10:10.207Z,34.77
2023-02-11T03:12:39.196Z,33.73
2023-02-11T03:15:08.317Z,34.10
2023-02-11T03:17:39.698Z,32.97
2023-02-11T03:20:14.204Z,33.23
2023-02-11T03:22:47.568Z,33.60
2023-02-11T03:25:16.419Z,29.67
2023-02-11T03:27:53.679Z,32.67
2023-02-11T03:30:27.531Z,37.73
2023-02-11T03:33:01.162Z,34.53
2023-02-11T03:35:36.665Z,33.90
2023-02-11T03:38:08.545Z,30.20
2023-02-11T03:40:39.391Z,30.93
2023-02-11T03:43:12.274Z,28.97
2023-02-11T03:45:41.286Z,31.47
2023-02-11T03:48:15.719Z,35.47
2023-02-11T03:50:46.904Z,30.10
2023-02-11T03:53:16.904Z,31.60
2023-02-11T03:55:46.708Z,32.47
2023-02-11T03:58:14.660Z,38.53
2023-02-11T04:00:44.471Z,33.17
2023-02-11T04:03:13.804Z,32.10
2023-02-11T04:05:41.934Z,36.10
2023-02-11T04:08:11.103Z,31.17
2023-02-11T04:10:38.857Z,36.83
2023-02-11T04:13:06.784Z,37.63
2023-02-11T04:15:34.563Z,36.97
2023-02-11T04:18:03.380Z,37.70
2023-02-11T04:20:31.720Z,39.57
2023-02-11T04:22:59.486Z,37.00
2023-02-11T04:25:29.147Z,38.70
2023-02-11T04:27:57.111Z,37.77
2023-02-11T04:30:24.945Z,35.97
2023-02-11T04:32:54.195Z,37.10
2023-02-11T04:35:22.256Z,41.03
2023-02-11T04:37:50.016Z,50.17
2023-02-11T04:40:18.139Z,50.77
2023-02-11T04:42:47.254Z,41.57
2023-02-11T04:45:15.002Z,47.93
2023-02-11T04:47:42.803Z,41.40
2023-02-11T04:50:10.882Z,43.67
2023-02-11T04:52:38.738Z,42.20
2023-02-11T04:55:07.357Z,46.00
2023-02-11T04:57:35.479Z,47.80
2023-02-11T05:00:04.919Z,55.13
2023-02-11T05:02:32.714Z,48.27
2023-02-11T05:05:00.508Z,50.53
2023-02-11T05:07:28.227Z,46.83
2023-02-11T05:09:56.012Z,50.27
2023-02-11T05:12:23.832Z,51.13
2023-02-11T05:14:51.561Z,47.87
2023-02-11T05:17:20.731Z,51.63
2023-02-11T05:19:48.438Z,51.10
2023-02-11T05:22:16.250Z,45.97
2023-02-11T05:24:43.967Z,52.97
2023-02-11T05:27:11.789Z,51.40
2023-02-11T05:29:39.816Z,53.00
2023-02-11T05:32:08.988Z,53.10
2023-02-11T05:34:38.242Z,49.90
2023-02-11T05:37:06.149Z,50.30
2023-02-11T05:39:33.945Z,51.13
2023-02-11T05:42:01.697Z,54.23
2023-02-11T05:44:29.427Z,52.13
2023-02-11T05:46:57.414Z,53.70
2023-02-11T05:49:25.227Z,46.40
2023-02-11T05:51:54.335Z,52.27
2023-02-11T05:54:22.275Z,50.00
2023-02-11T05:56:50.148Z,47.77
2023-02-11T05:59:18.027Z,47.03
2023-02-11T06:01:45.800Z,46.47
2023-02-11T06:04:13.623Z,42.27
2023-02-11T06:06:41.464Z,48.97
2023-02-11T06:09:11.623Z,43.13
2023-02-11T06:11:39.808Z,46.23
2023-02-11T06:14:07.628Z,49.30
2023-02-11T06:16:35.395Z,42.50
2023-02-11T06:19:03.322Z,45.83
2023-02-11T06:21:42.723Z,45.90
2023-02-11T06:24:13.222Z,49.07
2023-02-11T06:26:41.037Z,48.27
2023-02-11T06:29:08.852Z,49.73
2023-02-11T06:31:38.851Z,40.93
2023-02-11T06:34:06.912Z,51.53
2023-02-11T06:36:35.171Z,45.13
2023-02-11T06:39:02.994Z,51.17
2023-02-11T06:41:32.104Z,45.60
2023-02-11T06:43:59.875Z,43.43
2023-02-11T06:46:27.970Z,45.53
2023-02-11T06:48:55.940Z,50.40
2023-02-11T06:51:23.703Z,50.63
2023-02-11T06:53:51.555Z,51.57
2023-02-11T06:56:21.624Z,45.53
2023-02-11T06:58:55.454Z,44.57
2023-02-11T07:01:24.576Z,48.50
2023-02-11T07:03:53.093Z,49.80
2023-02-11T07:06:23.025Z,50.93
2023-02-11T07:08:50.950Z,55.27
2023-02-11T07:11:20.663Z,49.90
2023-02-11T07:13:50.196Z,49.90
2023-02-11T07:16:20.170Z,48.63
2023-02-11T07:18:48.941Z,53.07
2023-02-11T07:21:19.937Z,49.97
2023-02-11T07:23:48.900Z,52.43
2023-02-11T07:26:18.785Z,57.60
2023-02-11T07:28:47.450Z,61.40
2023-02-11T07:31:18.297Z,65.43
2023-02-11T07:33:46.747Z,57.50
2023-02-11T07:36:16.106Z,59.83
2023-02-11T07:38:44.321Z,55.67
2023-02-11T07:41:14.541Z,56.40
2023-02-11T07:43:42.664Z,55.47
2023-02-11T07:46:13.065Z,56.57
2023-02-11T07:48:42.219Z,54.67
2023-02-11T07:51:12.392Z,64.80
2023-02-11T07:53:40.345Z,60.90
2023-02-11T07:56:10.087Z,61.47
2023-02-11T07:58:38.071Z,62.00
2023-02-11T08:01:08.093Z,71.43
2023-02-11T08:03:37.072Z,68.13
2023-02-11T08:06:07.290Z,71.17
2023-02-11T08:08:35.156Z,70.17
2023-02-11T08:11:07.505Z,67.23
2023-02-11T08:13:35.536Z,65.30
2023-02-11T08:16:03.793Z,77.90
2023-02-11T08:18:32.244Z,69.93
2023-02-11T08:21:06.831Z,72.83
2023-02-11T08:23:34.944Z,75.87
2023-02-11T08:26:03.352Z,70.43
2023-02-11T08:28:31.513Z,73.40
2023-02-11T08:30:59.305Z,67.57
2023-02-11T08:33:27.032Z,66.27
2023-02-11T08:35:54.810Z,76.07
2023-02-11T08:38:23.944Z,82.13
2023-02-11T08:40:51.959Z,72.77
2023-02-11T08:43:19.920Z,72.97
2023-02-11T08:45:47.782Z,72.70
2023-02-11T08:48:15.612Z,78.50
2023-02-11T08:50:43.333Z,73.03
2023-02-11T08:53:11.098Z,75.87
2023-02-11T08:55:40.253Z,79.00
2023-02-11T08:58:08.119Z,77.93
2023-02-11T09:00:36.381Z,75.50
2023-02-11T09:03:04.384Z,71.03
2023-02-11T09:05:32.112Z,76.80
2023-02-11T09:07:59.840Z,68.07
2023-02-11T09:10:27.663Z,75.73
2023-02-11T09:12:56.776Z,76.30
2023-02-11T09:15:24.561Z,70.03
2023-02-11T09:17:52.335Z,79.03
2023-02-11T09:20:20.294Z,78.00
2023-02-11T09:22:48.153Z,70.83
2023-02-11T09:25:15.984Z,75.07
2023-02-11T09:27:43.725Z,73.13
2023-02-11T09:30:14.018Z,69.73
2023-02-11T09:32:41.822Z,74.90
2023-02-11T09:35:09.905Z,73.40
2023-02-11T09:37:37.712Z,73.03
2023-02-11T09:40:06.602Z,75.87
2023-02-11T09:42:52.921Z,71.00
2023-02-11T09:45:24.864Z,72.47
2023-02-11T09:47:56.620Z,71.63
2023-02-11T09:50:30.258Z,68.67
2023-02-11T09:53:01.588Z,65.57
2023-02-11T09:55:31.366Z,72.00
2023-02-11T09:57:59.632Z,73.73
2023-02-11T10:00:34.355Z,75.07
2023-02-11T10:03:43.527Z,70.47
2023-02-11T10:06:35.267Z,65.10
2023-02-11T10:09:17.406Z,70.53
2023-02-11T10:11:53.624Z,78.40
2023-02-11T10:14:37.044Z,67.13
2023-02-11T10:17:17.409Z,68.50
2023-02-11T10:19:58.757Z,68.30
2023-02-11T10:22:31.890Z,68.33
2023-02-11T10:25:01.808Z,69.50
2023-02-11T10:27:32.907Z,67.23
2023-02-11T10:30:05.614Z,73.57
2023-02-11T10:32:42.902Z,65.80
2023-02-11T10:35:17.915Z,72.63
2023-02-11T10:37:46.017Z,61.40
2023-02-11T10:40:16.724Z,70.50
2023-02-11T10:42:48.985Z,64.33
2023-02-11T10:45:23.239Z,63.63
2023-02-11T10:47:56.233Z,64.53
2023-02-11T10:50:26.884Z,67.37
2023-02-11T10:53:13.271Z,71.43
2023-02-11T10:55:53.384Z,69.43
2023-02-11T10:58:27.073Z,66.53
2023-02-11T11:00:57.078Z,68.03
2023-02-11T11:03:28.501Z,68.27
2023-02-11T11:05:58.813Z,75.40
2023-02-11T11:08:40.648Z,69.37
2023-02-11T11:11:09.997Z,64.43
2023-02-11T11:13:39.368Z,68.47
2023-02-11T11:16:16.007Z,67.57
2023-02-11T11:18:46.550Z,64.97
2023-02-11T11:21:16.996Z,64.27
2023-02-11T11:23:51.508Z,64.97
2023-02-11T11:26:19.852Z,68.17
2023-02-11T11:28:58.099Z,67.07
2023-02-11T11:31:29.785Z,70.47
2023-02-11T11:34:01.107Z,68.93
2023-02-11T11:36:37.913Z,70.23
2023-02-11T11:39:21.002Z,67.03
2023-02-11T11:41:55.218Z,75.73
2023-02-11T11:44:27.759Z,67.90
2023-02-11T11:47:16.858Z,71.10
2023-02-11T11:49:53.113Z,78.90
2023-02-11T11:52:34.460Z,68.93
2023-02-11T11:55:06.311Z,76.67
2023-02-11T11:57:38.606Z,72.40
2023-02-11T12:00:14.889Z,67.13
2023-02-11T12:03:19.598Z,71.60
2023-02-11T12:06:01.385Z,73.63
2023-02-11T12:08:42.121Z,77.03
2023-02-11T12:11:17.906Z,71.23
2023-02-11T12:13:58.015Z,69.93
2023-02-11T12:16:37.300Z,77.30
2023-02-11T12:19:37.760Z,72.00
2023-02-11T12:22:12.198Z,78.17
2023-02-11T12:24:54.619Z,77.27
2023-02-11T12:27:32.985Z,78.40
2023-02-11T12:30:07.469Z,73.33
2023-02-11T12:32:44.344Z,76.60
2023-02-11T12:35:29.341Z,74.17
2023-02-11T12:38:16.030Z,80.57
2023-02-11T12:40:46.775Z,84.57
2023-02-11T12:43:22.037Z,77.23
2023-02-11T12:46:11.510Z,79.83
2023-02-11T12:49:02.480Z,76.67
2023-02-11T12:51:46.427Z,73.80
2023-02-11T12:54:25.627Z,76.93
2023-02-11T12:57:02.246Z,77.03
2023-02-11T12:59:39.458Z,85.70
2023-02-11T13:02:17.883Z,77.50
2023-02-11T13:04:50.663Z,78.83
2023-02-11T13:07:27.884Z,83.33
2023-02-11T13:10:05.035Z,84.63
2023-02-11T13:12:52.353Z,80.63
2023-02-11T13:15:20.196Z,77.00
2023-02-11T13:17:55.596Z,78.17
2023-02-11T13:20:34.514Z,79.57
2023-02-11T13:23:12.260Z,82.57
2023-02-11T13:25:49.020Z,81.47
2023-02-11T13:28:29.097Z,80.47
2023-02-11T13:31:02.748Z,80.67
2023-02-11T13:33:36.096Z,82.17
2023-02-11T13:36:22.452Z,86.23
2023-02-11T13:39:02.909Z,85.50
2023-02-11T13:41:35.789Z,82.00
2023-02-11T13:44:23.125Z,81.73
2023-02-11T13:46:55.636Z,82.07
2023-02-11T13:49:27.044Z,84.37
2023-02-11T13:51:56.557Z,77.63
2023-02-11T13:54:31.057Z,82.03
2023-02-11T13:57:28.526Z,82.50
2023-02-11T13:59:57.343Z,79.10
2023-02-11T14:02:46.534Z,79.73
2023-02-11T14:05:41.781Z,81.50
2023-02-11T14:08:36.901Z,91.73
2023-02-11T14:11:12.369Z,80.17
2023-02-11T14:14:19.077Z,95.13
2023-02-11T14:17:21.318Z,78.80
2023-02-11T14:19:50.645Z,93.57
2023-02-11T14:22:23.776Z,79.43
2023-02-11T14:24:55.107Z,81.33
2023-02-11T14:27:30.798Z,82.13
2023-02-11T14:30:26.731Z,85.43
2023-02-11T14:33:18.356Z,84.17
2023-02-11T14:35:58.474Z,83.03
2023-02-11T14:38:35.765Z,72.53
2023-02-11T14:41:08.731Z,82.57
2023-02-11T14:43:41.215Z,81.40
2023-02-11T14:46:10.854Z,78.57
2023-02-11T14:48:44.220Z,82.40
2023-02-11T14:51:16.320Z,75.03
2023-02-11T14:53:47.528Z,77.40
2023-02-11T14:56:21.484Z,73.57
2023-02-11T14:58:51.951Z,84.07
2023-02-11T15:01:33.937Z,74.60
2023-02-11T15:04:03.520Z,74.53
2023-02-11T15:06:34.647Z,65.17
2023-02-11T15:09:07.178Z,65.40
2023-02-11T15:11:39.835Z,74.60
2023-02-11T15:14:10.758Z,74.22
2023-02-11T15:16:45.195Z,79.47
2023-02-11T15:19:22.745Z,72.87
2023-02-11T15:21:51.712Z,77.53
2023-02-11T15:24:26.469Z,68.93
2023-02-11T15:27:00.892Z,73.70
2023-02-11T15:29:30.536Z,70.33
2023-02-11T15:32:07.902Z,67.90
2023-02-11T15:34:36.096Z,73.03
2023-02-11T15:37:04.656Z,73.60
2023-02-11T15:39:36.519Z,66.17
2023-02-11T15:42:21.701Z,63.03
2023-02-11T15:44:56.537Z,63.20
2023-02-11T15:47:26.136Z,63.10
2023-02-11T15:49:54.018Z,63.80
2023-02-11T15:52:27.018Z,65.27
2023-02-11T15:54:57.364Z,61.17
2023-02-11T15:57:25.170Z,63.17
2023-02-11T15:59:54.885Z,67.67
2023-02-11T16:02:27.551Z,64.17
2023-02-11T16:04:58.285Z,61.27
2023-02-11T16:07:45.074Z,62.13
2023-02-11T16:10:24.899Z,60.03
2023-02-11T16:13:05.501Z,60.17
2023-02-11T16:15:44.982Z,58.63
2023-02-11T16:18:36.789Z,61.00
2023-02-11T16:21:08.687Z,59.60
2023-02-11T16:23:39.404Z,54.10
2023-02-11T16:26:11.201Z,58.70
2023-02-11T16:28:39.554Z,59.27
2023-02-11T16:31:07.701Z,56.07
2023-02-11T16:33:35.510Z,55.07
2023-02-11T16:36:13.199Z,71.70
2023-02-11T16:38:41.416Z,55.73
2023-02-11T16:41:11.881Z,57.10
2023-02-11T16:43:40.050Z,53.80
2023-02-11T16:46:09.256Z,60.23
2023-02-11T16:48:38.668Z,51.77
2023-02-11T16:51:09.167Z,53.53
2023-02-11T16:53:38.336Z,54.60
2023-02-11T16:56:06.596Z,58.33
2023-02-11T16:58:34.708Z,52.10
2023-02-11T17:01:02.692Z,52.57
2023-02-11T17:03:35.700Z,53.13
2023-02-11T17:06:05.632Z,57.50
2023-02-11T17:08:33.445Z,60.23
2023-02-11T17:11:02.702Z,51.83
2023-02-11T17:13:30.480Z,53.67
2023-02-11T17:15:58.366Z,52.90
2023-02-11T17:18:26.294Z,56.57
2023-02-11T17:20:54.201Z,54.47
2023-02-11T17:23:22.018Z,61.07
2023-02-11T17:25:56.497Z,54.47
2023-02-11T17:28:25.790Z,53.33
2023-02-11T17:30:53.655Z,54.87
2023-02-11T17:33:21.516Z,54.70
2023-02-11T17:35:49.471Z,53.90
2023-02-11T17:38:17.543Z,56.10
2023-02-11T17:40:45.309Z,60.47
2023-02-11T17:43:13.089Z,53.57
2023-02-11T17:45:43.719Z,59.23
2023-02-11T17:48:11.585Z,60.40
2023-02-11T17:50:39.362Z,58.30
2023-02-11T17:53:07.093Z,60.97
2023-02-11T17:55:35.242Z,57.37
2023-02-11T17:58:03.110Z,61.27
2023-02-11T18:00:31.333Z,62.30
2023-02-11T18:03:02.834Z,56.30
2023-02-11T18:05:35.537Z,63.60
2023-02-11T18:08:03.587Z,60.20
2023-02-11T18:10:31.730Z,55.87
2023-02-11T18:12:59.515Z,60.90
2023-02-11T18:15:27.492Z,59.40
2023-02-11T18:17:56.698Z,62.33
2023-02-11T18:20:25.922Z,60.33
2023-02-11T18:22:53.681Z,59.97
2023-02-11T18:25:21.542Z,60.40
2023-02-11T18:27:49.303Z,61.57
2023-02-11T18:30:19.022Z,63.13
2023-02-11T18:32:46.821Z,60.97
2023-02-11T18:35:15.835Z,57.90
2023-02-11T18:37:45.017Z,58.87
2023-02-11T18:40:13.972Z,58.73
2023-02-11T18:42:42.776Z,63.33
2023-02-11T18:45:14.941Z,61.33
2023-02-11T18:47:42.835Z,60.03
2023-02-11T18:50:13.715Z,66.70
2023-02-11T18:52:41.559Z,58.37
2023-02-11T18:55:11.139Z,62.97
2023-02-11T18:57:38.905Z,63.00
2023-02-11T19:00:09.981Z,63.73
2023-02-11T19:02:37.887Z,64.93
2023-02-11T19:05:06.405Z,69.60
2023-02-11T19:07:34.168Z,73.40
2023-02-11T19:10:01.942Z,62.50
2023-02-11T19:12:33.024Z,68.37
2023-02-11T19:15:01.075Z,70.07
2023-02-11T19:17:28.922Z,71.77
2023-02-11T19:19:56.657Z,62.90
2023-02-11T19:22:24.433Z,73.87
2023-02-11T19:24:52.182Z,69.67
2023-02-11T19:27:19.904Z,67.87
2023-02-11T19:29:49.388Z,70.87
2023-02-11T19:32:17.248Z,75.60
2023-02-11T19:34:45.061Z,76.27
2023-02-11T19:37:13.696Z,75.70
2023-02-11T19:39:42.112Z,70.13
2023-02-11T19:42:10.100Z,74.23
2023-02-11T19:44:37.869Z,71.37
2023-02-11T19:47:07.827Z,75.40
2023-02-11T19:49:35.546Z,81.63
2023-02-11T19:52:03.307Z,80.10
2023-02-11T19:54:31.066Z,79.43
2023-02-11T19:56:59.434Z,80.17
2023-02-11T19:59:27.576Z,81.07
2023-02-11T20:01:55.359Z,80.53
2023-02-11T20:04:25.137Z,85.57
2023-02-11T20:06:53.030Z,77.67
2023-02-11T20:09:21.641Z,84.20
2023-02-11T20:11:50.133Z,83.90
2023-02-11T20:14:17.863Z,83.10
2023-02-11T20:16:49.489Z,85.27
2023-02-11T20:19:19.017Z,88.10
2023-02-11T20:21:49.456Z,82.03
2023-02-11T20:24:18.473Z,83.17
2023-02-11T20:26:48.241Z,86.10
2023-02-11T20:29:17.238Z,87.87
2023-02-11T20:31:45.517Z,87.77
2023-02-11T20:34:13.502Z,87.87
2023-02-11T20:36:41.992Z,90.27
2023-02-11T20:39:17.018Z,89.43
2023-02-11T20:41:45.921Z,90.07
2023-02-11T20:44:14.917Z,90.07
2023-02-11T20:46:45.901Z,85.47
2023-02-11T20:49:15.271Z,88.40
2023-02-11T20:51:43.583Z,88.47
2023-02-11T20:54:15.304Z,85.93
2023-02-11T20:56:45.505Z,84.70
2023-02-11T20:59:16.523Z,82.13
2023-02-11T21:01:46.415Z,84.90
2023-02-11T21:04:16.710Z,93.00
2023-02-11T21:06:47.123Z,86.37
2023-02-11T21:09:19.731Z,84.00
2023-02-11T21:11:47.970Z,81.60
2023-02-11T21:14:16.226Z,83.97
2023-02-11T21:16:44.056Z,86.83
2023-02-11T21:19:11.966Z,87.20
2023-02-11T21:21:40.663Z,88.47
2023-02-11T21:24:09.316Z,87.37
2023-02-11T21:26:38.999Z,93.53
2023-02-11T21:29:08.345Z,85.00
2023-02-11T21:31:37.376Z,84.37
2023-02-11T21:34:05.799Z,88.33
2023-02-11T21:36:33.753Z,89.40
2023-02-11T21:39:01.782Z,92.33
2023-02-11T21:41:29.769Z,86.47
2023-02-11T21:43:58.975Z,88.77
2023-02-11T21:46:27.297Z,91.73
2023-02-11T21:48:55.174Z,84.97
2023-02-11T21:51:25.137Z,89.57
2023-02-11T21:53:57.503Z,85.53
2023-02-11T21:56:27.943Z,82.77
2023-02-11T21:58:56.982Z,88.83
2023-02-11T22:01:28.766Z,86.23
2023-02-11T22:03:57.409Z,91.80
2023-02-11T22:06:30.767Z,89.17
2023-02-11T22:09:00.406Z,87.27
2023-02-11T22:11:28.344Z,89.67
2023-02-11T22:13:57.799Z,83.40
2023-02-11T22:16:28.292Z,82.13
2023-02-11T22:18:58.360Z,78.10
2023-02-11T22:21:27.998Z,80.20
2023-02-11T22:23:56.808Z,87.13
2023-02-11T22:26:27.113Z,80.40
2023-02-11T22:28:55.417Z,77.97
2023-02-11T22:31:25.626Z,74.30
2023-02-11T22:33:55.228Z,72.47
2023-02-11T22:36:24.978Z,79.90
2023-02-11T22:38:53.536Z,81.10
2023-02-11T22:41:22.827Z,70.30
2023-02-11T22:43:50.867Z,76.27
2023-02-11T22:46:20.317Z,75.67
2023-02-11T22:48:49.561Z,74.17
2023-02-11T22:51:21.114Z,75.50
2023-02-11T22:53:53.492Z,71.73
2023-02-11T22:56:21.514Z,76.03
2023-02-11T22:58:49.610Z,77.00
2023-02-11T23:01:18.907Z,74.67
2023-02-11T23:03:47.079Z,70.57
2023-02-11T23:06:15.058Z,78.20
2023-02-11T23:08:44.442Z,72.13
2023-02-11T23:11:14.677Z,76.83
2023-02-11T23:13:44.390Z,75.63
2023-02-11T23:16:14.668Z,71.33
2023-02-11T23:18:44.458Z,74.30
2023-02-11T23:21:15.926Z,77.47
2023-02-11T23:23:46.234Z,76.20
2023-02-11T23:26:17.526Z,69.40
2023-02-11T23:28:47.073Z,71.60
2023-02-11T23:31:17.571Z,71.97
2023-02-11T23:33:46.021Z,70.53
2023-02-11T23:36:14.218Z,78.40
2023-02-11T23:38:42.063Z,68.83
2023-02-11T23:41:11.755Z,72.27
2023-02-11T23:43:39.863Z,69.67
2023-02-11T23:46:08.837Z,70.57
2023-02-11T23:48:37.640Z,71.13
2023-02-11T23:51:06.396Z,67.80
2023-02-11T23:53:34.157Z,70.73
2023-02-11T23:56:01.992Z,69.97
2023-02-11T23:58:31.257Z,69.27
